Impacts TAF Board
For situational awareness. Not to be used for flight planning purposes.
IDs:

KMAF - Midland Intl, TX, US

Issued at 1720 UTC 30 Oct 2020
Updated at 1741 UTC 30 Oct 2020
Potential Impact None Slight Moderate High
Time1653Z 30/18Z 30/19Z 30/20Z 30/21Z 30/22Z 30/23Z 31/00Z 31/01Z 31/02Z 31/03Z 31/04Z 31/05Z 31/06Z>>
Type OBS PRVL PRVL PRVL PRVL PRVL PRVL PRVL PRVL PRVL PRVL PRVL PRVL PRVL
VIS 10 >6 >6 >6 >6 >6 >6 >6 >6 >6 >6 >6 >6 >6
CIG -- -- -- -- -- -- -- -- -- -- -- -- -- --
Cover CLR FEW FEW FEW FEW FEW FEW FEW FEW FEW FEW FEW FEW FEW
FltCat VFR VFR VFR VFR VFR VFR VFR VFR VFR VFR VFR VFR VFR VFR
WX -- -- -- -- -- -- -- -- -- -- -- -- -- --
WDir 170 170 170 170 170 170 170 170 170 170 170 170 170 170
WSpd 9 9 9 9 9 9 9 9 9 9 9 9 9 9
WGst -- -- -- -- -- -- -- -- -- -- -- -- -- --
Raw TAF
KMAF 301720Z 3018/3118 17009KT P6SM FEW250

Raw METAR
KMAF 301653Z 17009KT 10SM CLR 16/01 A3031 RMK AO2 SLP244 T01610006
KMAF 301553Z 19008KT 10SM CLR 14/02 A3033 RMK AO2 SLP252 T01390017
KMAF 301453Z 18005KT 10SM CLR 10/02 A3032 RMK AO2 SLP254 T01000022 53009

METAR Board
Radar Display
Forecast Discussion
For situational awareness. Not to be used for flight planning purposes.